This is the latest recevied weather packets stored in our database for station/object N0NB. If no packets are shown the sender has not sent any weather packets the latest 10 day(s).
| Time | Temp. | Humidity | Pressure | Rain* | Wind** | Luminosity | Snow |
|---|---|---|---|---|---|---|---|
| 1777744815 | 16.11° C | 36% | 1020.2 hPa | 0 mm | - | 869 W/m² | - |
| 1777744215 | 16.11° C | 34% | 1020.3 hPa | 0 mm | - | 862 W/m² | - |
| 1777743615 | 16.11° C | 37% | 1020.5 hPa | 0 mm | - | 855 W/m² | - |
| 1777743015 | 16.11° C | 40% | 1020.6 hPa | 0 mm | - | 848 W/m² | - |
| 1777742417 | 16.11° C | 35% | 1020.7 hPa | 0 mm | - | 839 W/m² | - |
| 1777741817 | 15° C | 39% | 1020.8 hPa | 0 mm | - | 826 W/m² | - |
| 1777741217 | 15° C | 36% | 1020.9 hPa | 0 mm | - | 816 W/m² | - |
| 1777740617 | 15° C | 37% | 1020.9 hPa | 0 mm | - | 798 W/m² | - |
| 1777740017 | 14.44° C | 41% | 1021 hPa | 0 mm | - | 784 W/m² | - |
| 1777739417 | 13.89° C | 37% | 1021.1 hPa | 0 mm | - | 764 W/m² | - |
| 1777738817 | 13.89° C | 39% | 1021.3 hPa | 0 mm | - | 747 W/m² | - |
| 1777738215 | 13.89° C | 37% | 1021.3 hPa | 0 mm | - | 729 W/m² | - |
| 1777737617 | 13.33° C | 38% | 1021.4 hPa | 0 mm | - | 707 W/m² | - |
| 1777737017 | 13.33° C | 38% | 1021.4 hPa | 0 mm | - | 687 W/m² | - |
| 1777736417 | 12.78° C | 37% | 1021.4 hPa | 0 mm | - | 661 W/m² | - |
| 1777735817 | 12.78° C | 40% | 1021.5 hPa | 0 mm | - | 638 W/m² | - |
| 1777735217 | 12.22° C | 39% | 1021.5 hPa | 0 mm | - | 615 W/m² | - |
| 1777734617 | 12.22° C | 40% | 1021.4 hPa | 0 mm | - | 588 W/m² | - |
| 1777734017 | 12.22° C | 41% | 1021.5 hPa | 0 mm | - | 559 W/m² | - |
| 1777733417 | 11.67° C | 45% | 1021.6 hPa | 0 mm | - | 529 W/m² | - |
| 1777732817 | 11.11° C | 49% | 1021.5 hPa | 0 mm | - | 502 W/m² | - |
| 1777732217 | 11.11° C | 50% | 1021.6 hPa | 0 mm | - | 473 W/m² | - |
| 1777731617 | 10.56° C | 52% | 1021.6 hPa | 0 mm | - | 424 W/m² | - |
| 1777731017 | 10° C | 55% | 1021.6 hPa | 0 mm | - | 357 W/m² | - |
| 1777730417 | 9.44° C | 57% | 1021.4 hPa | 0 mm | - | 305 W/m² | - |
* Rain latest hour (hover to see other rain measurements)
** Current wind speed in m/s (hover to see current wind gust speed)